createdAt,value
2018-11-21T00:02:33.447Z,14.20
2018-11-21T00:05:00.854Z,15.07
2018-11-21T00:07:30.566Z,14.57
2018-11-21T00:09:57.968Z,14.87
2018-11-21T00:14:52.671Z,13.67
2018-11-21T00:17:20.099Z,14.17
2018-11-21T00:22:14.732Z,15.47
2018-11-21T00:24:41.887Z,15.40
2018-11-21T00:29:36.257Z,14.33
2018-11-21T00:32:03.437Z,14.03
2018-11-21T00:36:58.175Z,15.10
2018-11-21T00:39:25.423Z,14.70
2018-11-21T00:41:52.865Z,13.20
2018-11-21T00:44:20.320Z,15.60
2018-11-21T00:46:48.122Z,16.80
2018-11-21T00:49:15.544Z,14.47
2018-11-21T00:51:42.709Z,14.30
2018-11-21T00:54:09.942Z,15.00
2018-11-21T00:59:04.093Z,14.53
2018-11-21T01:03:58.280Z,16.07
2018-11-21T01:06:25.695Z,15.97
2018-11-21T01:11:20.444Z,16.73
2018-11-21T01:13:47.663Z,15.10
2018-11-21T01:18:42.077Z,15.23
2018-11-21T01:23:36.226Z,17.87
2018-11-21T01:26:03.367Z,17.17
2018-11-21T01:30:57.891Z,16.37
2018-11-21T01:33:26.010Z,16.20
2018-11-21T01:38:20.380Z,15.03
2018-11-21T01:40:47.884Z,18.00
2018-11-21T01:45:42.338Z,16.47
2018-11-21T01:48:09.755Z,16.20
2018-11-21T01:50:37.676Z,16.33
2018-11-21T01:53:04.840Z,17.13
2018-11-21T01:55:32.046Z,17.00
2018-11-21T01:57:59.753Z,15.03
2018-11-21T02:00:27.171Z,16.47
2018-11-21T02:02:54.408Z,15.30
2018-11-21T02:07:48.597Z,16.97
2018-11-21T02:10:15.779Z,17.23
2018-11-21T02:15:10.102Z,16.97
2018-11-21T02:17:37.546Z,15.33
2018-11-21T02:20:06.726Z,17.90
2018-11-21T02:22:34.123Z,16.10
2018-11-21T02:25:01.235Z,15.83
2018-11-21T02:27:28.772Z,16.67
2018-11-21T02:29:56.049Z,14.30
2018-11-21T02:32:23.245Z,17.47
2018-11-21T02:34:50.643Z,16.23
2018-11-21T02:37:17.841Z,16.53
2018-11-21T02:39:45.037Z,15.57
2018-11-21T02:44:39.902Z,15.73
2018-11-21T02:47:07.080Z,17.23
2018-11-21T02:49:34.311Z,17.67
2018-11-21T02:54:28.686Z,14.00
2018-11-21T02:59:45.806Z,16.43
2018-11-21T03:02:13.294Z,16.23
2018-11-21T03:04:40.833Z,15.07
2018-11-21T03:07:08.150Z,17.87
2018-11-21T03:09:35.693Z,16.80
2018-11-21T03:12:04.019Z,15.67
2018-11-21T03:14:31.299Z,17.17
2018-11-21T03:16:58.581Z,16.83
2018-11-21T03:19:26.346Z,17.93
2018-11-21T03:21:53.569Z,15.57
2018-11-21T03:24:20.804Z,18.47
2018-11-21T03:26:48.420Z,16.63
2018-11-21T03:29:15.869Z,15.90
2018-11-21T03:31:43.204Z,17.77
2018-11-21T03:36:37.685Z,16.50
2018-11-21T03:39:07.885Z,17.77
2018-11-21T03:44:03.802Z,19.40
2018-11-21T03:48:59.517Z,17.13
2018-11-21T03:51:26.919Z,18.37
2018-11-21T03:56:21.335Z,17.77
2018-11-21T03:58:48.834Z,17.27
2018-11-21T04:01:16.223Z,17.83
2018-11-21T04:03:43.915Z,16.17
2018-11-21T04:06:11.331Z,16.87
2018-11-21T04:08:42.731Z,18.03
2018-11-21T04:11:06.360Z,18.60
2018-11-21T04:13:33.842Z,16.80
2018-11-21T04:16:01.571Z,18.73
2018-11-21T04:18:29.109Z,17.87
2018-11-21T04:20:56.256Z,17.23
2018-11-21T04:23:23.464Z,17.97
2018-11-21T04:25:50.915Z,17.80
2018-11-21T04:28:18.083Z,18.33
2018-11-21T04:33:12.845Z,17.43
2018-11-21T04:35:40.439Z,17.37
2018-11-21T04:38:08.074Z,17.23
2018-11-21T04:40:35.542Z,17.47
2018-11-21T04:43:03.129Z,17.37
2018-11-21T04:45:30.318Z,17.30
2018-11-21T04:47:57.755Z,18.37
2018-11-21T04:52:52.190Z,20.53
2018-11-21T04:55:19.666Z,19.17
2018-11-21T04:57:46.942Z,19.40
2018-11-21T05:00:14.153Z,17.67
2018-11-21T05:02:41.329Z,17.60
2018-11-21T05:07:36.777Z,19.77
2018-11-21T05:10:05.387Z,17.40
2018-11-21T05:14:59.491Z,18.87
2018-11-21T05:17:26.923Z,16.83
2018-11-21T05:22:21.860Z,16.43
2018-11-21T05:24:49.642Z,16.70
2018-11-21T05:29:44.618Z,18.00
2018-11-21T05:34:38.976Z,19.57
2018-11-21T05:39:33.013Z,19.13
2018-11-21T05:42:00.528Z,18.17
2018-11-21T05:44:31.483Z,17.07
2018-11-21T05:46:55.665Z,18.30
2018-11-21T05:49:23.613Z,16.40
2018-11-21T05:51:52.503Z,19.97
2018-11-21T05:54:19.887Z,15.33
2018-11-21T05:56:47.048Z,17.67
2018-11-21T06:04:08.734Z,18.80
2018-11-21T06:06:36.124Z,19.30
2018-11-21T06:11:34.096Z,17.93
2018-11-21T06:14:01.408Z,21.27
2018-11-21T06:18:55.620Z,21.03
2018-11-21T06:21:22.960Z,21.50
2018-11-21T06:26:21.232Z,21.07
2018-11-21T06:28:49.016Z,20.50
2018-11-21T06:33:43.358Z,22.00
2018-11-21T06:36:11.269Z,20.37
2018-11-21T06:38:38.739Z,20.13
2018-11-21T06:41:06.008Z,22.50
2018-11-21T06:43:33.201Z,18.50
2018-11-21T06:46:00.989Z,19.47
2018-11-21T06:48:28.193Z,19.77
2018-11-21T06:50:55.508Z,21.43
2018-11-21T06:53:23.004Z,19.30
2018-11-21T06:55:50.849Z,18.57
2018-11-21T06:58:18.043Z,21.33
2018-11-21T07:00:45.484Z,22.73
2018-11-21T07:03:12.677Z,18.80
2018-11-21T07:05:39.898Z,18.97
2018-11-21T07:08:07.400Z,19.20
2018-11-21T07:10:34.561Z,22.33
2018-11-21T07:13:01.959Z,17.80
2018-11-21T07:15:29.373Z,18.13
2018-11-21T07:17:56.782Z,19.97
2018-11-21T07:20:24.042Z,20.23
2018-11-21T07:25:20.177Z,18.83
2018-11-21T07:27:47.333Z,19.27
2018-11-21T07:30:15.499Z,19.77
2018-11-21T07:32:42.624Z,21.07
2018-11-21T07:35:17.728Z,18.03
2018-11-21T07:37:40.984Z,20.20
2018-11-21T07:40:09.776Z,20.73
2018-11-21T07:42:37.226Z,20.23
2018-11-21T07:45:10.115Z,19.10
2018-11-21T07:47:38.264Z,18.70
2018-11-21T07:50:09.097Z,22.50
2018-11-21T07:52:36.771Z,20.27
2018-11-21T07:55:04.149Z,22.77
2018-11-21T07:57:38.755Z,19.40
2018-11-21T08:01:25.311Z,23.07
2018-11-21T08:03:54.242Z,19.63
2018-11-21T08:06:41.447Z,19.23
2018-11-21T08:09:38.735Z,18.90
2018-11-21T08:12:25.695Z,19.93
2018-11-21T08:15:19.094Z,20.53
2018-11-21T08:18:08.973Z,21.80
2018-11-21T08:21:01.866Z,19.67
2018-11-21T08:23:47.478Z,18.90
2018-11-21T08:26:42.050Z,21.07
2018-11-21T08:29:09.988Z,20.80
2018-11-21T08:31:37.271Z,20.17
2018-11-21T08:34:04.508Z,19.00
2018-11-21T08:36:38.504Z,20.97
2018-11-21T08:39:07.943Z,20.63
2018-11-21T08:41:35.094Z,20.73
2018-11-21T08:44:09.067Z,21.23
2018-11-21T08:46:36.728Z,20.30
2018-11-21T08:49:04.168Z,20.93
2018-11-21T08:51:31.708Z,19.30
2018-11-21T08:53:59.185Z,19.97
2018-11-21T08:56:26.364Z,21.60
2018-11-21T08:58:53.739Z,17.90
2018-11-21T09:01:21.049Z,17.63
2018-11-21T09:03:48.522Z,22.83
2018-11-21T09:06:16.419Z,19.77
2018-11-21T09:08:43.854Z,20.77
2018-11-21T09:11:11.016Z,26.37
2018-11-21T09:13:38.223Z,20.70
2018-11-21T09:16:05.350Z,18.73
2018-11-21T09:18:32.823Z,20.47
2018-11-21T09:21:01.128Z,21.47
2018-11-21T09:23:28.427Z,20.57
2018-11-21T09:25:56.396Z,20.37
2018-11-21T09:28:24.122Z,22.10
2018-11-21T09:30:51.675Z,22.50
2018-11-21T09:33:18.880Z,22.07
2018-11-21T09:35:46.605Z,23.30
2018-11-21T09:38:13.990Z,21.83
2018-11-21T09:40:41.205Z,19.40
2018-11-21T09:43:09.273Z,18.80
2018-11-21T09:45:36.469Z,19.13
2018-11-21T09:48:03.952Z,21.70
2018-11-21T09:50:32.681Z,20.20
2018-11-21T09:52:59.992Z,22.20
2018-11-21T09:55:27.426Z,19.37
2018-11-21T09:57:55.538Z,21.20
2018-11-21T10:01:31.448Z,20.97
2018-11-21T10:04:01.007Z,17.53
2018-11-21T10:06:29.512Z,20.80
2018-11-21T10:09:01.486Z,19.53
2018-11-21T10:11:29.984Z,20.00
2018-11-21T10:13:57.220Z,17.87
2018-11-21T10:16:24.645Z,22.30
2018-11-21T10:18:53.311Z,20.67
2018-11-21T10:21:22.387Z,20.17
2018-11-21T10:23:49.662Z,19.47
2018-11-21T10:26:16.867Z,20.53
2018-11-21T10:28:44.789Z,18.90
2018-11-21T10:31:12.253Z,19.13
2018-11-21T10:33:39.519Z,19.17
2018-11-21T10:36:06.682Z,19.77
2018-11-21T10:38:34.552Z,20.10
2018-11-21T10:41:01.717Z,21.30
2018-11-21T10:43:29.499Z,20.83
2018-11-21T10:45:57.333Z,18.17
2018-11-21T10:48:25.275Z,21.67
2018-11-21T10:50:52.486Z,19.17
2018-11-21T10:53:20.787Z,22.70
2018-11-21T10:55:48.062Z,20.53
2018-11-21T10:58:15.282Z,19.90
2018-11-21T11:01:01.508Z,20.40
2018-11-21T11:03:34.287Z,19.50
2018-11-21T11:06:27.533Z,20.97
2018-11-21T11:09:29.424Z,23.20
2018-11-21T11:12:22.724Z,22.10
2018-11-21T11:15:09.764Z,23.40
2018-11-21T11:17:59.443Z,18.57
2018-11-21T11:20:49.032Z,20.50
2018-11-21T11:23:33.291Z,20.40
2018-11-21T11:26:26.096Z,25.67
2018-11-21T11:29:25.516Z,23.83
2018-11-21T11:32:30.291Z,23.10
2018-11-21T11:35:22.919Z,22.63
2018-11-21T11:38:10.770Z,21.67
2018-11-21T11:41:09.270Z,20.60
2018-11-21T11:43:54.875Z,20.03
2018-11-21T11:46:50.624Z,18.93
2018-11-21T11:49:42.435Z,23.43
2018-11-21T11:52:29.603Z,20.47
2018-11-21T11:55:22.093Z,23.10
2018-11-21T11:58:08.946Z,20.23
2018-11-21T12:00:54.856Z,18.60
2018-11-21T12:03:40.384Z,19.33
2018-11-21T12:06:16.585Z,18.53
2018-11-21T12:09:02.512Z,18.20
2018-11-21T12:11:48.284Z,18.33
2018-11-21T12:14:26.937Z,20.20
2018-11-21T12:17:14.124Z,24.50
2018-11-21T12:19:52.365Z,18.47
2018-11-21T12:22:33.981Z,17.17
2018-11-21T12:25:32.994Z,19.63
2018-11-21T12:28:20.610Z,18.83
2018-11-21T12:30:57.783Z,16.07
2018-11-21T12:33:36.210Z,18.70
2018-11-21T12:36:28.251Z,19.73
2018-11-21T12:39:13.985Z,19.67
2018-11-21T12:42:18.875Z,19.77
2018-11-21T12:45:04.997Z,22.43
2018-11-21T12:47:43.588Z,22.10
2018-11-21T12:50:33.418Z,21.67
2018-11-21T12:53:18.823Z,23.20
2018-11-21T12:56:20.879Z,21.13
2018-11-21T12:59:06.730Z,22.07
2018-11-21T13:01:42.714Z,21.73
2018-11-21T13:04:28.623Z,22.10
2018-11-21T13:07:09.121Z,20.57
2018-11-21T13:09:56.792Z,22.67
2018-11-21T13:12:40.886Z,19.23
2018-11-21T13:15:26.588Z,20.47
2018-11-21T13:18:12.077Z,22.73
2018-11-21T13:20:57.462Z,20.10
2018-11-21T13:23:56.724Z,21.20
2018-11-21T13:26:42.016Z,21.47
2018-11-21T13:29:27.589Z,21.67
2018-11-21T13:32:12.856Z,23.90
2018-11-21T13:34:58.609Z,19.50
2018-11-21T13:37:53.222Z,19.83
2018-11-21T13:40:38.673Z,21.97
2018-11-21T13:43:23.936Z,22.20
2018-11-21T13:46:29.419Z,22.07
2018-11-21T13:49:19.446Z,19.47
2018-11-21T13:52:09.206Z,19.80
2018-11-21T13:55:04.930Z,20.73
2018-11-21T13:57:32.563Z,19.73
2018-11-21T14:00:00.159Z,21.10
2018-11-21T14:02:27.647Z,22.10
2018-11-21T14:04:55.212Z,20.53
2018-11-21T14:07:22.845Z,23.60
2018-11-21T14:09:50.128Z,21.60
2018-11-21T14:12:17.383Z,18.97
2018-11-21T14:14:44.749Z,18.93
2018-11-21T14:17:11.929Z,21.43
2018-11-21T14:19:39.390Z,22.90
2018-11-21T14:22:06.579Z,19.03
2018-11-21T14:24:34.101Z,21.47
2018-11-21T14:27:01.521Z,19.53
2018-11-21T14:29:28.687Z,21.10
2018-11-21T14:31:55.871Z,21.73
2018-11-21T14:34:23.152Z,19.83
2018-11-21T14:36:50.321Z,20.87
2018-11-21T14:39:17.668Z,18.80
2018-11-21T14:41:46.172Z,19.03
2018-11-21T14:44:13.377Z,19.83
2018-11-21T14:46:42.462Z,19.70
2018-11-21T14:49:12.014Z,20.17
2018-11-21T14:51:39.184Z,19.37
2018-11-21T14:54:07.075Z,20.37
2018-11-21T14:56:34.429Z,19.10
2018-11-21T14:59:02.131Z,19.43
2018-11-21T15:01:29.353Z,16.80
2018-11-21T15:03:56.664Z,18.17
2018-11-21T15:06:23.914Z,19.00
2018-11-21T15:08:52.094Z,18.60
2018-11-21T15:11:19.332Z,18.03
2018-11-21T15:13:46.524Z,18.77
2018-11-21T15:16:13.691Z,18.23
2018-11-21T15:18:41.064Z,17.43
2018-11-21T15:21:09.124Z,17.83
2018-11-21T15:23:36.702Z,20.13
2018-11-21T15:26:04.134Z,18.23
2018-11-21T15:28:31.627Z,17.60
2018-11-21T15:31:02.072Z,17.10
2018-11-21T15:33:29.575Z,17.50
2018-11-21T15:35:56.720Z,16.90
2018-11-21T15:38:24.423Z,14.40
2018-11-21T15:40:51.985Z,14.27
2018-11-21T15:43:19.228Z,14.23
2018-11-21T15:45:46.841Z,14.77
2018-11-21T15:48:14.038Z,16.07
2018-11-21T15:50:41.201Z,16.07
2018-11-21T15:53:08.499Z,15.30
2018-11-21T15:55:35.739Z,16.20
2018-11-21T15:58:02.921Z,14.77
2018-11-21T16:00:32.333Z,14.63
2018-11-21T16:03:10.393Z,15.73
2018-11-21T16:05:37.698Z,15.63
2018-11-21T16:08:05.217Z,14.40
2018-11-21T16:10:39.578Z,14.70
2018-11-21T16:13:07.358Z,16.67
2018-11-21T16:15:38.742Z,14.43
2018-11-21T16:18:05.934Z,14.67
2018-11-21T16:20:33.396Z,15.30
2018-11-21T16:23:00.767Z,14.37
2018-11-21T16:25:27.906Z,13.50
2018-11-21T16:27:55.216Z,13.17
2018-11-21T16:30:23.731Z,14.17
2018-11-21T16:32:51.173Z,14.90
2018-11-21T16:35:18.702Z,13.90
2018-11-21T16:37:45.959Z,14.67
2018-11-21T16:40:15.645Z,14.50
2018-11-21T16:42:42.942Z,13.27
2018-11-21T16:45:12.117Z,12.93
2018-11-21T16:47:39.539Z,13.23
2018-11-21T16:50:10.024Z,15.97
2018-11-21T16:52:37.403Z,12.83
2018-11-21T16:55:06.732Z,13.47
2018-11-21T16:57:34.353Z,11.87
2018-11-21T17:00:01.525Z,13.37
2018-11-21T17:02:28.693Z,12.67
2018-11-21T17:04:56.043Z,13.83
2018-11-21T17:07:24.252Z,11.33
2018-11-21T17:09:51.978Z,11.23
2018-11-21T17:12:19.194Z,12.73
2018-11-21T17:14:46.340Z,12.77
2018-11-21T17:17:13.766Z,13.33
2018-11-21T17:19:40.983Z,11.87
2018-11-21T17:22:08.192Z,13.30
2018-11-21T17:24:35.423Z,11.80
2018-11-21T17:27:02.580Z,13.10
2018-11-21T17:29:29.762Z,13.43
2018-11-21T17:31:57.170Z,10.70
2018-11-21T17:34:24.381Z,13.60
2018-11-21T17:36:51.557Z,13.23
2018-11-21T17:39:19.184Z,11.97
2018-11-21T17:41:46.338Z,12.93
2018-11-21T17:44:14.072Z,11.43
2018-11-21T17:46:41.323Z,12.43
2018-11-21T17:49:15.660Z,13.80
2018-11-21T17:51:40.669Z,14.07
2018-11-21T17:54:08.360Z,13.53
2018-11-21T17:56:35.971Z,12.10
2018-11-21T17:59:03.358Z,12.17
2018-11-21T18:01:30.539Z,14.47
2018-11-21T18:03:58.257Z,14.30
2018-11-21T18:06:26.451Z,13.23
2018-11-21T18:08:54.049Z,13.63
2018-11-21T18:11:23.066Z,11.70
2018-11-21T18:13:50.217Z,13.50
2018-11-21T18:16:18.014Z,13.07
2018-11-21T18:18:45.343Z,14.57
2018-11-21T18:21:13.952Z,12.20
2018-11-21T18:23:40.271Z,12.23
2018-11-21T18:26:07.481Z,13.20
2018-11-21T18:28:35.240Z,15.70
2018-11-21T18:31:02.424Z,12.97
2018-11-21T18:33:31.748Z,14.03
2018-11-21T18:35:58.939Z,12.97
2018-11-21T18:38:26.341Z,16.20
2018-11-21T18:40:53.528Z,12.73
2018-11-21T18:43:20.741Z,13.80
2018-11-21T18:45:49.227Z,14.53
2018-11-21T18:48:16.398Z,15.27
2018-11-21T18:50:43.574Z,14.20
2018-11-21T18:53:17.884Z,19.47
2018-11-21T18:55:59.694Z,15.07
2018-11-21T18:59:04.503Z,13.50
2018-11-21T19:01:32.039Z,14.40
2018-11-21T19:03:59.492Z,13.43
2018-11-21T19:06:27.240Z,14.00
2018-11-21T19:08:54.410Z,14.50
2018-11-21T19:11:21.598Z,15.80
2018-11-21T19:13:49.015Z,13.67
2018-11-21T19:16:16.465Z,13.67
2018-11-21T19:18:43.698Z,17.30
2018-11-21T19:21:11.032Z,13.33
2018-11-21T19:23:38.218Z,15.13
2018-11-21T19:26:05.453Z,15.33
2018-11-21T19:28:32.898Z,16.37
2018-11-21T19:31:00.120Z,16.90
2018-11-21T19:33:27.366Z,14.17
2018-11-21T19:35:54.568Z,16.50
2018-11-21T19:38:21.802Z,13.67
2018-11-21T19:40:49.510Z,16.57
2018-11-21T19:43:16.761Z,15.47
2018-11-21T19:45:44.322Z,14.97
2018-11-21T19:48:11.948Z,18.07
2018-11-21T19:50:39.369Z,17.60
2018-11-21T19:53:06.771Z,14.17
2018-11-21T19:55:34.766Z,16.83
2018-11-21T19:58:02.180Z,16.60
2018-11-21T20:00:30.831Z,15.53
2018-11-21T20:02:58.101Z,15.53
2018-11-21T20:05:25.409Z,16.87
2018-11-21T20:07:53.246Z,15.30
2018-11-21T20:10:21.460Z,18.83
2018-11-21T20:12:48.692Z,18.83
2018-11-21T20:15:17.737Z,19.17
2018-11-21T20:17:46.669Z,18.43
2018-11-21T20:20:15.299Z,19.70
2018-11-21T20:22:43.172Z,18.37
2018-11-21T20:25:11.992Z,19.23
2018-11-21T20:27:39.189Z,19.10
2018-11-21T20:30:14.642Z,20.03
2018-11-21T20:32:41.905Z,21.63
2018-11-21T20:35:09.884Z,18.80
2018-11-21T20:37:37.290Z,21.37
2018-11-21T20:40:11.664Z,18.93
2018-11-21T20:42:38.826Z,21.30
2018-11-21T20:45:11.272Z,20.60
2018-11-21T20:47:39.198Z,17.47
2018-11-21T20:50:06.626Z,20.20
2018-11-21T20:52:33.798Z,18.60
2018-11-21T20:55:00.998Z,20.23
2018-11-21T20:57:28.199Z,19.97
2018-11-21T20:59:55.554Z,20.87
2018-11-21T21:02:22.746Z,19.70
2018-11-21T21:04:50.172Z,19.47
2018-11-21T21:07:22.405Z,21.03
2018-11-21T21:09:53.023Z,19.13
2018-11-21T21:12:20.262Z,21.13
2018-11-21T21:14:47.622Z,18.80
2018-11-21T21:17:14.847Z,19.30
2018-11-21T21:19:42.358Z,19.50
2018-11-21T21:22:18.463Z,19.33
2018-11-21T21:24:42.887Z,19.10
2018-11-21T21:27:10.148Z,19.73
2018-11-21T21:29:37.795Z,17.80
2018-11-21T21:32:05.058Z,18.37
2018-11-21T21:34:32.218Z,19.80
2018-11-21T21:36:59.654Z,18.37
2018-11-21T21:39:26.871Z,19.27
2018-11-21T21:41:54.201Z,18.13
2018-11-21T21:44:21.718Z,17.90
2018-11-21T21:46:49.293Z,19.90
2018-11-21T21:49:16.784Z,18.90
2018-11-21T21:51:44.277Z,19.53
2018-11-21T21:54:11.456Z,18.50
2018-11-21T21:56:38.987Z,18.33
2018-11-21T21:59:06.220Z,17.60
2018-11-21T22:01:33.464Z,17.27
2018-11-21T22:04:00.992Z,19.53
2018-11-21T22:06:28.540Z,18.80
2018-11-21T22:08:55.954Z,17.77
2018-11-21T22:11:23.282Z,15.63
2018-11-21T22:13:50.499Z,17.63
2018-11-21T22:16:18.140Z,18.83
2018-11-21T22:18:46.191Z,19.27
2018-11-21T22:21:13.660Z,17.23
2018-11-21T22:23:40.915Z,18.43
2018-11-21T22:26:08.542Z,17.23
2018-11-21T22:28:36.065Z,18.70
2018-11-21T22:31:03.454Z,18.30
2018-11-21T22:33:30.890Z,18.30
2018-11-21T22:36:02.761Z,18.40
2018-11-21T22:38:30.824Z,19.23
2018-11-21T22:40:53.381Z,17.17
2018-11-21T22:43:20.566Z,17.00
2018-11-21T22:45:47.752Z,16.33
2018-11-21T22:48:15.516Z,17.37
2018-11-21T22:50:42.698Z,17.83
2018-11-21T22:53:09.957Z,16.87
2018-11-21T22:55:37.688Z,15.80
2018-11-21T22:58:05.279Z,17.17
2018-11-21T23:00:45.794Z,17.47
2018-11-21T23:03:13.893Z,16.50
2018-11-21T23:05:41.032Z,16.67
2018-11-21T23:08:08.787Z,16.60
2018-11-21T23:10:38.991Z,16.30
2018-11-21T23:13:13.169Z,18.60
2018-11-21T23:15:40.489Z,15.03
2018-11-21T23:18:07.960Z,16.70
2018-11-21T23:20:35.455Z,19.37
2018-11-21T23:23:02.907Z,18.00
2018-11-21T23:25:30.051Z,16.17
2018-11-21T23:27:57.473Z,17.63
2018-11-21T23:30:24.639Z,17.90
2018-11-21T23:32:52.027Z,17.03
2018-11-21T23:35:19.943Z,17.53
2018-11-21T23:37:47.287Z,16.60
2018-11-21T23:40:15.143Z,16.70
2018-11-21T23:42:44.029Z,19.90
2018-11-21T23:45:12.692Z,15.17
2018-11-21T23:47:39.870Z,14.60
2018-11-21T23:50:08.505Z,17.60
2018-11-21T23:52:36.033Z,17.73
2018-11-21T23:55:03.453Z,14.93
2018-11-21T23:57:30.792Z,15.73
2018-11-21T23:59:58.334Z,18.20
